createdAt,value
2023-01-19T00:00:10.863Z,99510.97
2023-01-19T00:02:14.705Z,99508.25
2023-01-19T00:04:17.983Z,99509.00
2023-01-19T00:06:21.348Z,99513.19
2023-01-19T00:08:24.729Z,99515.69
2023-01-19T00:10:28.020Z,99513.88
2023-01-19T00:12:32.716Z,99512.91
2023-01-19T00:14:36.112Z,99508.59
2023-01-19T00:16:39.285Z,99510.25
2023-01-19T00:18:42.498Z,99504.19
2023-01-19T00:20:46.955Z,99513.59
2023-01-19T00:22:51.015Z,99515.28
2023-01-19T00:24:54.311Z,99506.63
2023-01-19T00:26:58.172Z,99507.47
2023-01-19T00:29:03.060Z,99509.97
2023-01-19T00:31:06.507Z,99508.16
2023-01-19T00:33:10.183Z,99505.41
2023-01-19T00:35:13.405Z,99497.66
2023-01-19T00:37:17.630Z,99509.59
2023-01-19T00:39:20.879Z,99513.00
2023-01-19T00:41:44.212Z,99506.03
2023-01-19T00:43:47.529Z,99507.69
2023-01-19T00:45:52.720Z,99513.69
2023-01-19T00:47:57.326Z,99518.78
2023-01-19T00:50:00.651Z,99510.13
2023-01-19T00:52:03.913Z,99521.22
2023-01-19T00:54:10.445Z,99518.66
2023-01-19T00:56:13.712Z,99516.81
2023-01-19T00:58:16.948Z,99516.81
2023-01-19T01:00:21.591Z,99530.50
2023-01-19T01:02:26.561Z,99518.44
2023-01-19T01:04:30.044Z,99523.59
2023-01-19T01:06:33.335Z,99515.78
2023-01-19T01:08:36.578Z,99538.09
2023-01-19T01:10:39.829Z,99526.03
2023-01-19T01:12:57.333Z,99518.22
2023-01-19T01:15:09.380Z,99521.69
2023-01-19T01:17:14.318Z,99517.31
2023-01-19T01:19:19.439Z,99527.63
2023-01-19T01:21:23.738Z,99527.63
2023-01-19T01:23:26.936Z,99526.72
2023-01-19T01:25:31.235Z,99525.81
2023-01-19T01:27:34.468Z,99526.63
2023-01-19T01:29:37.732Z,99522.31
2023-01-19T01:31:41.117Z,99516.13
2023-01-19T01:33:44.377Z,99515.31
2023-01-19T01:35:49.951Z,99527.31
2023-01-19T01:37:53.164Z,99523.81
2023-01-19T01:39:56.521Z,99525.47
2023-01-19T01:41:59.766Z,99520.31
2023-01-19T01:44:06.307Z,99517.66
2023-01-19T01:46:09.757Z,99513.34
2023-01-19T01:48:17.378Z,99523.66
2023-01-19T01:50:23.718Z,99525.34
2023-01-19T01:52:30.855Z,99518.44
2023-01-19T01:54:34.969Z,99520.16
2023-01-19T01:56:42.732Z,99521.84
2023-01-19T01:58:46.546Z,99516.69
2023-01-19T02:01:07.443Z,99520.16
2023-01-19T02:03:10.851Z,99524.44
2023-01-19T02:05:18.418Z,99527.00
2023-01-19T02:07:45.140Z,99521.84
2023-01-19T02:10:07.234Z,99523.50
2023-01-19T02:12:27.847Z,99512.28
2023-01-19T02:14:31.108Z,99509.69
2023-01-19T02:16:34.968Z,99509.63
2023-01-19T02:18:38.977Z,99510.47
2023-01-19T02:20:46.491Z,99506.97
2023-01-19T02:22:50.835Z,99499.22
2023-01-19T02:24:55.804Z,99515.56
2023-01-19T02:26:59.997Z,99502.56
2023-01-19T02:29:05.370Z,99506.06
2023-01-19T02:31:08.598Z,99505.91
2023-01-19T02:33:11.911Z,99505.97
2023-01-19T02:35:15.348Z,99509.41
2023-01-19T02:37:20.069Z,99504.25
2023-01-19T02:39:28.423Z,99509.41
2023-01-19T02:41:39.962Z,99504.25
2023-01-19T02:43:44.032Z,99512.81
2023-01-19T02:45:48.337Z,99508.50
2023-01-19T02:47:52.973Z,99511.91
2023-01-19T02:49:57.259Z,99509.34
2023-01-19T02:52:01.464Z,99511.84
2023-01-19T02:54:20.227Z,99514.41
2023-01-19T02:56:49.173Z,99510.94
2023-01-19T02:59:02.506Z,99505.75
2023-01-19T03:01:14.726Z,99517.75
2023-01-19T03:03:30.814Z,99507.44
2023-01-19T03:05:46.060Z,99510.78
2023-01-19T03:07:55.117Z,99512.44
2023-01-19T03:10:04.508Z,99503.78
2023-01-19T03:12:16.071Z,99504.69
2023-01-19T03:14:22.967Z,99504.63
2023-01-19T03:16:31.862Z,99500.25
2023-01-19T03:18:38.264Z,99510.59
2023-01-19T03:20:43.158Z,99505.44
2023-01-19T03:22:50.322Z,99510.59
2023-01-19T03:24:55.632Z,99501.09
2023-01-19T03:27:03.807Z,99505.44
2023-01-19T03:29:11.610Z,99500.25
2023-01-19T03:31:18.745Z,99494.31
2023-01-19T03:33:27.506Z,99505.44
2023-01-19T03:35:35.297Z,99495.09
2023-01-19T03:37:42.253Z,99502.84
2023-01-19T03:39:45.612Z,99496.78
2023-01-19T03:41:51.324Z,99501.94
2023-01-19T03:43:57.742Z,99503.59
2023-01-19T03:46:04.272Z,99506.19
2023-01-19T03:48:08.631Z,99512.28
2023-01-19T03:50:19.744Z,99511.34
2023-01-19T03:52:29.690Z,99516.44
2023-01-19T03:54:33.383Z,99516.44
2023-01-19T03:56:36.618Z,99519.88
2023-01-19T03:58:39.794Z,99513.78
2023-01-19T04:00:42.995Z,99510.28
2023-01-19T04:02:47.548Z,99506.81
2023-01-19T04:04:51.216Z,99511.13
2023-01-19T04:06:54.481Z,99517.13
2023-01-19T04:08:57.642Z,99506.81
2023-01-19T04:11:00.809Z,99514.56
2023-01-19T04:13:04.691Z,99504.22
2023-01-19T04:15:08.904Z,99518.81
2023-01-19T04:17:12.150Z,99511.06
2023-01-19T04:19:16.704Z,99504.16
2023-01-19T04:21:21.412Z,99505.81
2023-01-19T04:23:25.142Z,99511.81
2023-01-19T04:25:28.431Z,99518.66
2023-01-19T04:27:31.627Z,99508.31
2023-01-19T04:29:34.804Z,99511.81
2023-01-19T04:31:38.053Z,99510.06
2023-01-19T04:33:41.344Z,99514.41
2023-01-19T04:35:46.340Z,99514.47
2023-01-19T04:37:49.660Z,99515.31
2023-01-19T04:39:52.867Z,99515.31
2023-01-19T04:41:57.466Z,99517.91
2023-01-19T04:44:01.961Z,99520.41
2023-01-19T04:46:05.540Z,99518.66
2023-01-19T04:48:08.879Z,99513.50
2023-01-19T04:50:13.172Z,99519.41
2023-01-19T04:52:17.750Z,99522.84
2023-01-19T04:54:21.032Z,99523.66
2023-01-19T04:56:24.541Z,99518.50
2023-01-19T04:58:27.886Z,99523.66
2023-01-19T05:00:31.122Z,99523.66
2023-01-19T05:02:34.527Z,99525.34
2023-01-19T05:04:37.711Z,99527.16
2023-01-19T05:06:40.974Z,99534.91
2023-01-19T05:08:45.668Z,99534.91
2023-01-19T05:10:49.619Z,99539.16
2023-01-19T05:12:52.830Z,99544.34
2023-01-19T05:14:56.203Z,99535.66
2023-01-19T05:17:00.555Z,99539.09
2023-01-19T05:19:03.798Z,99537.34
2023-01-19T05:21:07.920Z,99535.66
2023-01-19T05:23:11.329Z,99540.84
2023-01-19T05:25:16.046Z,99541.69
2023-01-19T05:27:19.224Z,99538.25
2023-01-19T05:29:22.501Z,99542.50
2023-01-19T05:31:25.861Z,99536.50
2023-01-19T05:33:29.189Z,99542.50
2023-01-19T05:35:36.124Z,99551.19
2023-01-19T05:37:39.732Z,99542.50
2023-01-19T05:39:42.921Z,99549.34
2023-01-19T05:41:47.819Z,99551.03
2023-01-19T05:43:50.996Z,99548.44
2023-01-19T05:45:54.764Z,99545.03
2023-01-19T05:47:58.287Z,99538.94
2023-01-19T05:50:01.639Z,99544.94
2023-01-19T05:52:05.132Z,99545.84
2023-01-19T05:54:10.088Z,99544.94
2023-01-19T05:56:13.250Z,99542.34
2023-01-19T05:58:17.837Z,99548.38
2023-01-19T06:00:21.792Z,99549.19
2023-01-19T06:02:28.690Z,99542.34
2023-01-19T06:04:32.281Z,99539.03
2023-01-19T06:06:35.481Z,99538.19
2023-01-19T06:08:38.904Z,99543.34
2023-01-19T06:10:42.083Z,99534.75
2023-01-19T06:12:46.071Z,99539.03
2023-01-19T06:14:50.958Z,99552.84
2023-01-19T06:16:54.281Z,99554.66
2023-01-19T06:18:57.509Z,99558.16
2023-01-19T06:21:03.659Z,99560.81
2023-01-19T06:23:06.913Z,99553.13
2023-01-19T06:25:11.930Z,99556.63
2023-01-19T06:27:15.470Z,99556.63
2023-01-19T06:29:18.986Z,99560.13
2023-01-19T06:31:23.698Z,99565.28
2023-01-19T06:33:27.943Z,99559.28
2023-01-19T06:35:31.136Z,99567.13
2023-01-19T06:37:34.420Z,99568.84
2023-01-19T06:39:38.022Z,99567.13
2023-01-19T06:41:41.691Z,99567.25
2023-01-19T06:43:44.981Z,99566.34
2023-01-19T06:45:48.372Z,99572.44
2023-01-19T06:47:53.217Z,99582.75
2023-01-19T06:49:57.685Z,99586.25
2023-01-19T06:52:01.215Z,99596.56
2023-01-19T06:54:04.581Z,99602.59
2023-01-19T06:56:09.423Z,99598.25
2023-01-19T06:58:13.624Z,99600.91
2023-01-19T07:00:17.786Z,99610.41
2023-01-19T07:02:26.104Z,99610.41
2023-01-19T07:04:33.929Z,99603.56
2023-01-19T07:06:37.374Z,99615.56
2023-01-19T07:08:41.083Z,99625.91
2023-01-19T07:11:26.404Z,99624.22
2023-01-19T07:13:07.499Z,99628.47
2023-01-19T07:15:11.786Z,99632.81
2023-01-19T07:17:15.018Z,99633.75
2023-01-19T07:19:18.521Z,99637.13
2023-01-19T07:21:23.542Z,99634.56
2023-01-19T07:23:30.197Z,99638.91
2023-01-19T07:25:33.429Z,99639.72
2023-01-19T07:27:36.807Z,99644.88
2023-01-19T07:29:40.132Z,99649.13
2023-01-19T07:31:43.587Z,99653.47
2023-01-19T07:33:47.591Z,99649.97
2023-01-19T07:35:52.027Z,99646.56
2023-01-19T07:37:56.710Z,99647.38
2023-01-19T07:40:00.332Z,99660.31
2023-01-19T07:42:03.582Z,99655.06
2023-01-19T07:44:08.717Z,99665.41
2023-01-19T07:46:11.958Z,99665.41
2023-01-19T07:48:15.177Z,99681.72
2023-01-19T07:50:21.432Z,99680.91
2023-01-19T07:52:25.102Z,99682.56
2023-01-19T07:54:29.780Z,99683.41
2023-01-19T07:56:33.930Z,99684.25
2023-01-19T07:58:37.478Z,99682.44
2023-01-19T08:00:40.795Z,99685.78
2023-01-19T08:02:44.107Z,99686.53
2023-01-19T08:04:49.172Z,99688.97
2023-01-19T08:06:52.511Z,99703.50
2023-01-19T08:08:55.748Z,99685.34
2023-01-19T08:11:00.948Z,99699.03
2023-01-19T08:13:04.293Z,99699.78
2023-01-19T08:15:08.839Z,99693.72
2023-01-19T08:17:13.926Z,99700.56
2023-01-19T08:19:19.294Z,99703.03
2023-01-19T08:21:22.617Z,99703.88
2023-01-19T08:23:25.838Z,99709.03
2023-01-19T08:25:33.880Z,99709.88
2023-01-19T08:27:38.525Z,99705.56
2023-01-19T08:29:41.994Z,99711.56
2023-01-19T08:31:45.323Z,99720.00
2023-01-19T08:33:48.586Z,99713.84
2023-01-19T08:35:53.015Z,99709.31
2023-01-19T08:37:56.255Z,99710.84
2023-01-19T08:39:59.461Z,99720.88
2023-01-19T08:42:02.770Z,99714.69
2023-01-19T08:44:07.441Z,99723.06
2023-01-19T08:46:10.846Z,99727.25
2023-01-19T08:48:14.645Z,99727.94
2023-01-19T08:50:18.575Z,99726.13
2023-01-19T08:52:21.728Z,99732.81
2023-01-19T08:54:24.985Z,99727.50
2023-01-19T08:56:28.480Z,99738.53
2023-01-19T08:58:31.687Z,99738.53
2023-01-19T09:00:38.881Z,99742.81
2023-01-19T09:02:42.104Z,99749.72
2023-01-19T09:04:45.336Z,99752.38
2023-01-19T09:06:48.779Z,99751.53
2023-01-19T09:08:52.102Z,99749.03
2023-01-19T09:10:55.479Z,99752.53
2023-01-19T09:12:58.798Z,99756.84
2023-01-19T09:15:02.015Z,99759.38
2023-01-19T09:17:07.543Z,99754.28
2023-01-19T09:19:10.769Z,99752.59
2023-01-19T09:21:15.153Z,99758.59
2023-01-19T09:23:21.217Z,99754.34
2023-01-19T09:25:24.514Z,99758.69
2023-01-19T09:27:27.755Z,99757.00
2023-01-19T09:29:30.979Z,99760.34
2023-01-19T09:31:35.560Z,99767.19
2023-01-19T09:33:40.244Z,99771.47
2023-01-19T09:35:44.531Z,99775.72
2023-01-19T09:37:48.224Z,99780.91
2023-01-19T09:39:51.561Z,99783.34
2023-01-19T09:42:05.977Z,99778.06
2023-01-19T09:44:19.407Z,99780.56
2023-01-19T09:46:28.594Z,99786.44
2023-01-19T09:48:52.542Z,99785.44
2023-01-19T09:50:59.444Z,99786.97
2023-01-19T09:53:13.851Z,99793.69
2023-01-19T09:55:22.179Z,99790.03
2023-01-19T09:57:27.253Z,99793.38
2023-01-19T09:59:32.234Z,99796.75
2023-01-19T10:01:48.002Z,99802.69
2023-01-19T10:04:03.900Z,99806.91
2023-01-19T10:06:12.940Z,99805.25
2023-01-19T10:08:24.812Z,99812.91
2023-01-19T10:10:29.727Z,99810.25
2023-01-19T10:12:42.790Z,99811.94
2023-01-19T10:14:54.766Z,99815.28
2023-01-19T10:17:05.584Z,99814.28
2023-01-19T10:19:23.757Z,99817.56
2023-01-19T10:21:31.581Z,99825.88
2023-01-19T10:23:42.791Z,99822.16
2023-01-19T10:25:47.820Z,99819.38
2023-01-19T10:27:51.327Z,99818.38
2023-01-19T10:29:55.130Z,99825.00
2023-01-19T10:32:08.260Z,99837.66
2023-01-19T10:34:21.563Z,99844.34
2023-01-19T10:36:31.461Z,99835.69
2023-01-19T10:38:37.656Z,99832.25
2023-01-19T10:40:49.410Z,99831.50
2023-01-19T10:42:52.713Z,99834.16
2023-01-19T10:44:56.108Z,99838.41
2023-01-19T10:47:01.299Z,99837.50
2023-01-19T10:49:04.949Z,99835.81
2023-01-19T10:51:09.934Z,99841.00
2023-01-19T10:53:22.879Z,99848.84
2023-01-19T10:55:29.491Z,99855.84
2023-01-19T10:57:36.975Z,99847.31
2023-01-19T10:59:50.998Z,99851.81
2023-01-19T11:02:15.163Z,99852.88
2023-01-19T11:04:23.884Z,99846.94
2023-01-19T11:06:29.668Z,99851.34
2023-01-19T11:08:34.297Z,99857.28
2023-01-19T11:10:39.107Z,99853.03
2023-01-19T11:12:43.733Z,99848.59
2023-01-19T11:14:48.230Z,99848.59
2023-01-19T11:16:54.906Z,99845.94
2023-01-19T11:19:02.072Z,99850.13
2023-01-19T11:21:08.168Z,99849.97
2023-01-19T11:23:22.961Z,99848.16
2023-01-19T11:25:32.018Z,99854.09
2023-01-19T11:27:38.221Z,99856.00
2023-01-19T11:29:41.573Z,99856.84
2023-01-19T11:31:45.518Z,99854.25
2023-01-19T11:33:54.644Z,99854.25
2023-01-19T11:36:04.382Z,99855.09
2023-01-19T11:38:23.274Z,99856.00
2023-01-19T11:40:27.909Z,99859.56
2023-01-19T11:42:36.591Z,99860.56
2023-01-19T11:44:45.939Z,99860.78
2023-01-19T11:46:56.948Z,99859.28
2023-01-19T11:49:06.168Z,99865.38
2023-01-19T11:51:15.682Z,99863.69
2023-01-19T11:53:24.401Z,99863.69
2023-01-19T11:55:37.647Z,99861.13
2023-01-19T11:57:46.559Z,99859.28
2023-01-19T11:59:52.503Z,99869.47
2023-01-19T12:01:59.056Z,99864.06
2023-01-19T12:04:08.136Z,99869.03
2023-01-19T12:06:15.570Z,99864.53
2023-01-19T12:08:24.527Z,99862.78
2023-01-19T12:10:32.745Z,99866.91
2023-01-19T12:12:40.483Z,99873.59
2023-01-19T12:14:51.599Z,99870.09
2023-01-19T12:17:00.239Z,99877.84
2023-01-19T12:19:07.503Z,99875.34
2023-01-19T12:21:10.828Z,99877.09
2023-01-19T12:23:26.889Z,99871.16
2023-01-19T12:25:45.535Z,99872.00
2023-01-19T12:27:51.223Z,99869.41
2023-01-19T12:29:56.011Z,99876.25
2023-01-19T12:32:18.222Z,99881.38
2023-01-19T12:34:41.541Z,99880.44
2023-01-19T12:36:44.797Z,99886.47
2023-01-19T12:38:52.383Z,99892.47
2023-01-19T12:41:21.283Z,99884.78
2023-01-19T12:43:24.724Z,99890.81
2023-01-19T12:45:33.207Z,99895.97
2023-01-19T12:47:37.733Z,99892.47
2023-01-19T12:49:43.856Z,99897.66
2023-01-19T12:51:47.364Z,99897.66
2023-01-19T12:53:54.404Z,99899.47
2023-01-19T12:56:06.187Z,99895.22
2023-01-19T12:58:18.660Z,99896.13
2023-01-19T13:00:34.876Z,99900.47
2023-01-19T13:02:47.502Z,99897.97
2023-01-19T13:05:10.754Z,99906.63
2023-01-19T13:07:17.894Z,99908.31
2023-01-19T13:09:30.404Z,99902.28
2023-01-19T13:11:34.754Z,99898.78
2023-01-19T13:13:42.323Z,99902.97
2023-01-19T13:15:45.554Z,99908.84
2023-01-19T13:17:52.318Z,99907.84
2023-01-19T13:20:01.873Z,99910.28
2023-01-19T13:22:38.482Z,99900.81
2023-01-19T13:25:07.049Z,99915.38
2023-01-19T13:27:14.450Z,99912.72
2023-01-19T13:29:26.290Z,99910.88
2023-01-19T13:31:35.731Z,99905.56
2023-01-19T13:33:46.100Z,99915.75
2023-01-19T13:35:56.121Z,99920.78
2023-01-19T13:38:00.148Z,99923.31
2023-01-19T13:40:03.662Z,99919.81
2023-01-19T13:42:15.631Z,99928.50
2023-01-19T13:44:25.040Z,99922.47
2023-01-19T13:46:29.981Z,99929.31
2023-01-19T13:48:34.143Z,99928.41
2023-01-19T13:50:39.681Z,99933.50
2023-01-19T13:52:45.832Z,99933.44
2023-01-19T13:54:50.363Z,99939.34
2023-01-19T13:56:55.075Z,99942.72
2023-01-19T13:59:10.357Z,99946.06
2023-01-19T14:01:26.648Z,99945.97
2023-01-19T14:03:36.162Z,99945.91
2023-01-19T14:05:41.213Z,99957.94
2023-01-19T14:07:44.446Z,99957.88
2023-01-19T14:09:47.959Z,99960.31
2023-01-19T14:12:12.288Z,99961.00
2023-01-19T14:14:33.297Z,99964.19
2023-01-19T14:16:38.082Z,99962.19
2023-01-19T14:18:41.363Z,99966.44
2023-01-19T14:20:54.085Z,99972.41
2023-01-19T14:22:57.361Z,99972.47
2023-01-19T14:25:23.175Z,99970.72
2023-01-19T14:27:26.372Z,99974.22
2023-01-19T14:29:32.897Z,99972.53
2023-01-19T14:31:44.346Z,99978.75
2023-01-19T14:33:49.240Z,99984.94
2023-01-19T14:35:52.566Z,99982.50
2023-01-19T14:37:55.818Z,99988.59
2023-01-19T14:40:04.677Z,99993.75
2023-01-19T14:42:08.140Z,99995.44
2023-01-19T14:44:12.557Z,100000.47
2023-01-19T14:46:19.507Z,99996.81
2023-01-19T14:48:25.806Z,99995.72
2023-01-19T14:50:31.961Z,100004.34
2023-01-19T14:52:39.342Z,100007.84
2023-01-19T14:54:46.014Z,100016.72
2023-01-19T14:56:49.499Z,100016.03
2023-01-19T14:58:52.734Z,100016.16
2023-01-19T15:00:56.347Z,100010.31
2023-01-19T15:02:59.589Z,100013.13
2023-01-19T15:05:04.419Z,100016.91
2023-01-19T15:07:08.126Z,100013.88
2023-01-19T15:09:13.568Z,100015.09
2023-01-19T15:11:24.952Z,100023.28
2023-01-19T15:13:29.019Z,100028.03
2023-01-19T15:15:34.109Z,100037.81
2023-01-19T15:17:37.343Z,100029.50
2023-01-19T15:19:40.491Z,100031.47
2023-01-19T15:21:46.897Z,100039.53
2023-01-19T15:23:50.591Z,100047.56
2023-01-19T15:25:54.888Z,100040.03
2023-01-19T15:27:59.846Z,100048.00
2023-01-19T15:30:03.060Z,100048.13
2023-01-19T15:32:06.959Z,100048.34
2023-01-19T15:34:13.223Z,100056.31
2023-01-19T15:36:18.571Z,100050.53
2023-01-19T15:38:23.813Z,100052.47
2023-01-19T15:40:27.215Z,100056.09
2023-01-19T15:42:30.381Z,100064.06
2023-01-19T15:44:33.550Z,100062.50
2023-01-19T15:46:36.695Z,100071.25
2023-01-19T15:48:39.920Z,100067.13
2023-01-19T15:50:44.363Z,100071.59
2023-01-19T15:52:47.597Z,100071.72
2023-01-19T15:54:52.181Z,100079.66
2023-01-19T15:56:55.337Z,100077.22
2023-01-19T15:58:59.738Z,100086.78
2023-01-19T16:01:03.170Z,100085.09
2023-01-19T16:03:06.437Z,100084.31
2023-01-19T16:05:10.621Z,100088.75
2023-01-19T16:07:14.123Z,100097.41
2023-01-19T16:09:20.115Z,100106.06
2023-01-19T16:11:24.717Z,100105.22
2023-01-19T16:13:30.019Z,100112.13
2023-01-19T16:15:35.651Z,100113.94
2023-01-19T16:17:38.941Z,100119.13
2023-01-19T16:19:42.137Z,100113.16
2023-01-19T16:21:45.355Z,100120.06
2023-01-19T16:23:48.567Z,100121.81
2023-01-19T16:25:59.179Z,100120.13
2023-01-19T16:28:03.769Z,100123.63
2023-01-19T16:30:08.550Z,100127.97
2023-01-19T16:32:12.233Z,100127.13
2023-01-19T16:34:15.419Z,100130.59
2023-01-19T16:36:23.569Z,100128.91
2023-01-19T16:38:26.801Z,100133.25
2023-01-19T16:40:30.208Z,100144.53
2023-01-19T16:42:33.443Z,100148.03
2023-01-19T16:44:38.089Z,100149.84
2023-01-19T16:46:42.889Z,100149.97
2023-01-19T16:48:46.078Z,100153.44
2023-01-19T16:51:01.205Z,100151.78
2023-01-19T16:53:05.181Z,100156.25
2023-01-19T16:55:11.241Z,100164.06
2023-01-19T16:57:14.982Z,100165.84
2023-01-19T16:59:19.172Z,100166.81
2023-01-19T17:01:24.656Z,100166.88
2023-01-19T17:03:28.170Z,100168.63
2023-01-19T17:05:31.335Z,100176.44
2023-01-19T17:07:34.480Z,100178.22
2023-01-19T17:09:37.758Z,100176.59
